sensor_id;sensor_type;location;lat;lon;timestamp;P1;durP1;ratioP1;P2;durP2;ratioP2
49051;SDS011;34866;48.670;18.260;2023-04-30T00:00:18;23.38;;;13.52;;
49051;SDS011;34866;48.670;18.260;2023-04-30T00:02:44;21.83;;;13.10;;
49051;SDS011;34866;48.670;18.260;2023-04-30T00:05:10;26.05;;;13.85;;
49051;SDS011;34866;48.670;18.260;2023-04-30T00:07:36;24.45;;;14.05;;
49051;SDS011;34866;48.670;18.260;2023-04-30T00:10:09;24.88;;;13.32;;
49051;SDS011;34866;48.670;18.260;2023-04-30T00:12:38;30.45;;;14.07;;
49051;SDS011;34866;48.670;18.260;2023-04-30T00:15:05;29.15;;;13.73;;
49051;SDS011;34866;48.670;18.260;2023-04-30T00:17:31;21.90;;;12.55;;
49051;SDS011;34866;48.670;18.260;2023-04-30T00:19:57;28.17;;;12.60;;
49051;SDS011;34866;48.670;18.260;2023-04-30T00:22:22;27.63;;;12.60;;
49051;SDS011;34866;48.670;18.260;2023-04-30T00:24:49;19.00;;;10.63;;
49051;SDS011;34866;48.670;18.260;2023-04-30T00:27:15;28.70;;;14.68;;
49051;SDS011;34866;48.670;18.260;2023-04-30T00:29:42;37.35;;;17.30;;
49051;SDS011;34866;48.670;18.260;2023-04-30T00:32:08;37.55;;;16.50;;
49051;SDS011;34866;48.670;18.260;2023-04-30T00:34:34;25.70;;;12.70;;
49051;SDS011;34866;48.670;18.260;2023-04-30T00:36:59;27.90;;;14.73;;
49051;SDS011;34866;48.670;18.260;2023-04-30T00:39:26;30.98;;;15.82;;
49051;SDS011;34866;48.670;18.260;2023-04-30T00:41:55;24.33;;;13.50;;
49051;SDS011;34866;48.670;18.260;2023-04-30T00:44:22;23.42;;;13.30;;
49051;SDS011;34866;48.670;18.260;2023-04-30T00:46:47;29.92;;;14.25;;
49051;SDS011;34866;48.670;18.260;2023-04-30T00:49:13;23.63;;;12.63;;
49051;SDS011;34866;48.670;18.260;2023-04-30T00:51:40;23.58;;;13.27;;
49051;SDS011;34866;48.670;18.260;2023-04-30T00:54:06;22.80;;;13.23;;
49051;SDS011;34866;48.670;18.260;2023-04-30T00:56:36;23.88;;;13.05;;
49051;SDS011;34866;48.670;18.260;2023-04-30T00:59:07;21.75;;;11.65;;
49051;SDS011;34866;48.670;18.260;2023-04-30T01:01:33;27.45;;;13.70;;
49051;SDS011;34866;48.670;18.260;2023-04-30T01:03:58;25.05;;;12.77;;
49051;SDS011;34866;48.670;18.260;2023-04-30T01:06:25;26.35;;;13.75;;
49051;SDS011;34866;48.670;18.260;2023-04-30T01:08:52;24.30;;;12.00;;
49051;SDS011;34866;48.670;18.260;2023-04-30T01:16:59;23.35;;;12.52;;
49051;SDS011;34866;48.670;18.260;2023-04-30T01:19:43;21.20;;;13.32;;
49051;SDS011;34866;48.670;18.260;2023-04-30T01:30:26;23.58;;;11.38;;
49051;SDS011;34866;48.670;18.260;2023-04-30T01:32:57;20.08;;;11.02;;
49051;SDS011;34866;48.670;18.260;2023-04-30T01:35:32;28.35;;;12.07;;
49051;SDS011;34866;48.670;18.260;2023-04-30T01:38:06;21.35;;;12.48;;
49051;SDS011;34866;48.670;18.260;2023-04-30T01:40:41;20.00;;;11.07;;
49051;SDS011;34866;48.670;18.260;2023-04-30T01:52:11;23.27;;;13.35;;
49051;SDS011;34866;48.670;18.260;2023-04-30T01:57:52;23.95;;;11.50;;
49051;SDS011;34866;48.670;18.260;2023-04-30T02:00:24;26.48;;;11.82;;
49051;SDS011;34866;48.670;18.260;2023-04-30T02:02:51;21.27;;;11.63;;
49051;SDS011;34866;48.670;18.260;2023-04-30T02:05:18;18.77;;;10.93;;
49051;SDS011;34866;48.670;18.260;2023-04-30T02:07:45;25.75;;;11.50;;
49051;SDS011;34866;48.670;18.260;2023-04-30T02:10:13;23.52;;;12.98;;
49051;SDS011;34866;48.670;18.260;2023-04-30T02:12:40;20.30;;;11.48;;
49051;SDS011;34866;48.670;18.260;2023-04-30T02:15:07;21.20;;;11.07;;
49051;SDS011;34866;48.670;18.260;2023-04-30T02:17:40;23.55;;;11.45;;
49051;SDS011;34866;48.670;18.260;2023-04-30T02:20:06;22.02;;;10.50;;
49051;SDS011;34866;48.670;18.260;2023-04-30T02:22:32;17.20;;;10.52;;
49051;SDS011;34866;48.670;18.260;2023-04-30T02:25:00;23.50;;;11.40;;
49051;SDS011;34866;48.670;18.260;2023-04-30T02:27:28;19.83;;;11.60;;
49051;SDS011;34866;48.670;18.260;2023-04-30T02:29:55;22.77;;;11.40;;
49051;SDS011;34866;48.670;18.260;2023-04-30T02:32:22;23.20;;;11.55;;
49051;SDS011;34866;48.670;18.260;2023-04-30T02:34:48;25.27;;;12.27;;
49051;SDS011;34866;48.670;18.260;2023-04-30T02:37:14;32.38;;;12.18;;
49051;SDS011;34866;48.670;18.260;2023-04-30T02:39:40;19.98;;;11.45;;
49051;SDS011;34866;48.670;18.260;2023-04-30T02:42:09;20.02;;;11.43;;
49051;SDS011;34866;48.670;18.260;2023-04-30T02:44:35;22.35;;;11.98;;
49051;SDS011;34866;48.670;18.260;2023-04-30T02:47:00;19.80;;;10.40;;
49051;SDS011;34866;48.670;18.260;2023-04-30T02:49:35;23.23;;;12.15;;
49051;SDS011;34866;48.670;18.260;2023-04-30T02:52:04;19.58;;;9.20;;
49051;SDS011;34866;48.670;18.260;2023-04-30T02:54:34;18.95;;;10.23;;
49051;SDS011;34866;48.670;18.260;2023-04-30T02:57:00;18.45;;;9.65;;
49051;SDS011;34866;48.670;18.260;2023-04-30T02:59:25;26.50;;;11.13;;
49051;SDS011;34866;48.670;18.260;2023-04-30T03:01:51;22.75;;;10.73;;
49051;SDS011;34866;48.670;18.260;2023-04-30T03:04:17;20.88;;;11.20;;
49051;SDS011;34866;48.670;18.260;2023-04-30T03:06:42;19.10;;;10.77;;
49051;SDS011;34866;48.670;18.260;2023-04-30T03:09:08;18.40;;;10.43;;
49051;SDS011;34866;48.670;18.260;2023-04-30T03:11:36;21.92;;;11.27;;
49051;SDS011;34866;48.670;18.260;2023-04-30T03:14:02;18.48;;;10.43;;
49051;SDS011;34866;48.670;18.260;2023-04-30T03:16:29;22.15;;;10.88;;
49051;SDS011;34866;48.670;18.260;2023-04-30T03:18:55;18.20;;;10.82;;
49051;SDS011;34866;48.670;18.260;2023-04-30T03:21:21;16.45;;;9.85;;
49051;SDS011;34866;48.670;18.260;2023-04-30T03:23:46;21.20;;;9.60;;
49051;SDS011;34866;48.670;18.260;2023-04-30T03:26:13;17.42;;;9.57;;
49051;SDS011;34866;48.670;18.260;2023-04-30T03:28:38;16.05;;;10.52;;
49051;SDS011;34866;48.670;18.260;2023-04-30T03:31:04;24.08;;;9.77;;
49051;SDS011;34866;48.670;18.260;2023-04-30T03:33:32;18.05;;;9.38;;
49051;SDS011;34866;48.670;18.260;2023-04-30T03:35:58;17.25;;;8.98;;
49051;SDS011;34866;48.670;18.260;2023-04-30T03:38:24;19.02;;;9.52;;
49051;SDS011;34866;48.670;18.260;2023-04-30T03:40:50;13.55;;;8.77;;
49051;SDS011;34866;48.670;18.260;2023-04-30T03:43:18;15.13;;;8.35;;
49051;SDS011;34866;48.670;18.260;2023-04-30T03:45:47;17.65;;;9.50;;
49051;SDS011;34866;48.670;18.260;2023-04-30T03:48:13;14.15;;;8.70;;
49051;SDS011;34866;48.670;18.260;2023-04-30T03:50:39;16.33;;;8.52;;
49051;SDS011;34866;48.670;18.260;2023-04-30T03:53:05;16.63;;;8.50;;
49051;SDS011;34866;48.670;18.260;2023-04-30T03:55:31;15.30;;;7.95;;
49051;SDS011;34866;48.670;18.260;2023-04-30T03:57:59;14.05;;;7.00;;
49051;SDS011;34866;48.670;18.260;2023-04-30T04:00:24;15.20;;;7.88;;
49051;SDS011;34866;48.670;18.260;2023-04-30T04:02:50;14.10;;;7.32;;
49051;SDS011;34866;48.670;18.260;2023-04-30T04:05:19;13.02;;;7.65;;
49051;SDS011;34866;48.670;18.260;2023-04-30T04:07:45;13.65;;;7.80;;
49051;SDS011;34866;48.670;18.260;2023-04-30T04:10:10;13.73;;;7.35;;
49051;SDS011;34866;48.670;18.260;2023-04-30T04:12:39;19.95;;;8.65;;
49051;SDS011;34866;48.670;18.260;2023-04-30T04:15:08;14.40;;;7.53;;
49051;SDS011;34866;48.670;18.260;2023-04-30T04:17:37;12.60;;;7.05;;
49051;SDS011;34866;48.670;18.260;2023-04-30T04:20:03;14.32;;;7.90;;
49051;SDS011;34866;48.670;18.260;2023-04-30T04:22:30;16.83;;;7.97;;
49051;SDS011;34866;48.670;18.260;2023-04-30T04:24:56;17.67;;;7.60;;
49051;SDS011;34866;48.670;18.260;2023-04-30T04:27:21;13.93;;;7.40;;
49051;SDS011;34866;48.670;18.260;2023-04-30T04:29:50;15.02;;;7.55;;
49051;SDS011;34866;48.670;18.260;2023-04-30T04:32:20;13.65;;;6.55;;
49051;SDS011;34866;48.670;18.260;2023-04-30T04:34:47;14.80;;;7.18;;
49051;SDS011;34866;48.670;18.260;2023-04-30T04:37:16;14.93;;;6.93;;
49051;SDS011;34866;48.670;18.260;2023-04-30T04:39:42;18.42;;;8.18;;
49051;SDS011;34866;48.670;18.260;2023-04-30T04:42:09;14.35;;;7.82;;
49051;SDS011;34866;48.670;18.260;2023-04-30T04:44:34;15.77;;;8.07;;
49051;SDS011;34866;48.670;18.260;2023-04-30T04:47:03;15.48;;;6.32;;
49051;SDS011;34866;48.670;18.260;2023-04-30T04:49:29;15.13;;;6.30;;
49051;SDS011;34866;48.670;18.260;2023-04-30T04:51:55;12.63;;;6.80;;
49051;SDS011;34866;48.670;18.260;2023-04-30T04:54:22;13.10;;;6.15;;
49051;SDS011;34866;48.670;18.260;2023-04-30T04:56:59;13.02;;;6.68;;
49051;SDS011;34866;48.670;18.260;2023-04-30T04:59:27;12.18;;;6.30;;
49051;SDS011;34866;48.670;18.260;2023-04-30T05:01:53;14.20;;;7.47;;
49051;SDS011;34866;48.670;18.260;2023-04-30T05:04:18;14.90;;;7.95;;
49051;SDS011;34866;48.670;18.260;2023-04-30T05:06:44;14.10;;;6.03;;
49051;SDS011;34866;48.670;18.260;2023-04-30T05:09:10;10.48;;;5.70;;
49051;SDS011;34866;48.670;18.260;2023-04-30T05:11:36;14.23;;;5.72;;
49051;SDS011;34866;48.670;18.260;2023-04-30T05:14:06;15.45;;;7.20;;
49051;SDS011;34866;48.670;18.260;2023-04-30T05:16:35;10.20;;;5.68;;
49051;SDS011;34866;48.670;18.260;2023-04-30T05:19:00;15.23;;;6.88;;
49051;SDS011;34866;48.670;18.260;2023-04-30T05:21:26;14.45;;;6.68;;
49051;SDS011;34866;48.670;18.260;2023-04-30T05:23:53;11.43;;;6.47;;
49051;SDS011;34866;48.670;18.260;2023-04-30T05:26:20;12.93;;;6.15;;
49051;SDS011;34866;48.670;18.260;2023-04-30T05:28:49;8.95;;;5.25;;
49051;SDS011;34866;48.670;18.260;2023-04-30T05:31:35;12.60;;;5.93;;
49051;SDS011;34866;48.670;18.260;2023-04-30T05:34:00;8.13;;;4.05;;
49051;SDS011;34866;48.670;18.260;2023-04-30T05:36:26;12.10;;;5.25;;
49051;SDS011;34866;48.670;18.260;2023-04-30T05:39:02;7.60;;;4.07;;
49051;SDS011;34866;48.670;18.260;2023-04-30T05:41:31;6.80;;;3.75;;
49051;SDS011;34866;48.670;18.260;2023-04-30T05:43:57;5.55;;;3.15;;
49051;SDS011;34866;48.670;18.260;2023-04-30T05:46:22;7.90;;;3.05;;
49051;SDS011;34866;48.670;18.260;2023-04-30T05:48:48;7.97;;;3.95;;
49051;SDS011;34866;48.670;18.260;2023-04-30T05:51:14;5.30;;;2.72;;
49051;SDS011;34866;48.670;18.260;2023-04-30T05:53:45;9.30;;;3.50;;
49051;SDS011;34866;48.670;18.260;2023-04-30T05:56:12;5.82;;;3.45;;
49051;SDS011;34866;48.670;18.260;2023-04-30T05:58:38;6.18;;;3.33;;
49051;SDS011;34866;48.670;18.260;2023-04-30T06:01:05;7.45;;;3.30;;
49051;SDS011;34866;48.670;18.260;2023-04-30T06:03:31;12.18;;;3.42;;
49051;SDS011;34866;48.670;18.260;2023-04-30T06:05:56;9.00;;;2.92;;
49051;SDS011;34866;48.670;18.260;2023-04-30T06:08:22;7.63;;;3.58;;
49051;SDS011;34866;48.670;18.260;2023-04-30T06:10:48;5.93;;;3.35;;
49051;SDS011;34866;48.670;18.260;2023-04-30T06:13:19;6.53;;;3.15;;
49051;SDS011;34866;48.670;18.260;2023-04-30T06:15:46;5.20;;;2.88;;
49051;SDS011;34866;48.670;18.260;2023-04-30T06:18:12;7.57;;;3.58;;
49051;SDS011;34866;48.670;18.260;2023-04-30T06:20:41;6.63;;;3.55;;
49051;SDS011;34866;48.670;18.260;2023-04-30T06:23:07;7.30;;;3.05;;
49051;SDS011;34866;48.670;18.260;2023-04-30T06:25:33;9.52;;;3.75;;
49051;SDS011;34866;48.670;18.260;2023-04-30T06:27:59;6.03;;;3.33;;
49051;SDS011;34866;48.670;18.260;2023-04-30T06:30:25;6.55;;;3.47;;
49051;SDS011;34866;48.670;18.260;2023-04-30T06:32:55;8.00;;;2.95;;
49051;SDS011;34866;48.670;18.260;2023-04-30T06:35:40;6.78;;;3.20;;
49051;SDS011;34866;48.670;18.260;2023-04-30T06:38:06;6.90;;;2.58;;
49051;SDS011;34866;48.670;18.260;2023-04-30T06:40:32;5.32;;;2.35;;
49051;SDS011;34866;48.670;18.260;2023-04-30T06:42:58;5.50;;;2.50;;
49051;SDS011;34866;48.670;18.260;2023-04-30T06:45:24;5.32;;;2.33;;
49051;SDS011;34866;48.670;18.260;2023-04-30T06:47:50;4.85;;;2.30;;
49051;SDS011;34866;48.670;18.260;2023-04-30T06:50:17;4.30;;;2.08;;
49051;SDS011;34866;48.670;18.260;2023-04-30T06:52:45;5.53;;;2.63;;
49051;SDS011;34866;48.670;18.260;2023-04-30T06:55:11;3.95;;;2.03;;
49051;SDS011;34866;48.670;18.260;2023-04-30T06:57:37;5.07;;;2.90;;
49051;SDS011;34866;48.670;18.260;2023-04-30T07:00:04;4.97;;;2.20;;
49051;SDS011;34866;48.670;18.260;2023-04-30T07:02:31;8.35;;;2.47;;
49051;SDS011;34866;48.670;18.260;2023-04-30T07:04:56;6.25;;;2.53;;
49051;SDS011;34866;48.670;18.260;2023-04-30T07:07:22;7.53;;;2.63;;
49051;SDS011;34866;48.670;18.260;2023-04-30T07:09:49;4.72;;;2.38;;
49051;SDS011;34866;48.670;18.260;2023-04-30T07:12:17;6.20;;;2.33;;
49051;SDS011;34866;48.670;18.260;2023-04-30T07:14:43;6.15;;;2.08;;
49051;SDS011;34866;48.670;18.260;2023-04-30T07:17:10;4.70;;;1.90;;
49051;SDS011;34866;48.670;18.260;2023-04-30T07:19:36;3.97;;;2.03;;
49051;SDS011;34866;48.670;18.260;2023-04-30T07:22:01;5.90;;;2.78;;
49051;SDS011;34866;48.670;18.260;2023-04-30T07:24:27;5.05;;;2.03;;
49051;SDS011;34866;48.670;18.260;2023-04-30T07:26:54;6.05;;;2.30;;
49051;SDS011;34866;48.670;18.260;2023-04-30T07:29:20;7.20;;;2.42;;
49051;SDS011;34866;48.670;18.260;2023-04-30T07:31:46;5.13;;;2.08;;
49051;SDS011;34866;48.670;18.260;2023-04-30T07:34:12;5.32;;;1.77;;
49051;SDS011;34866;48.670;18.260;2023-04-30T07:36:38;3.55;;;1.80;;
49051;SDS011;34866;48.670;18.260;2023-04-30T07:39:03;4.38;;;2.30;;
49051;SDS011;34866;48.670;18.260;2023-04-30T07:41:32;4.63;;;2.20;;
49051;SDS011;34866;48.670;18.260;2023-04-30T07:43:59;4.60;;;2.38;;
49051;SDS011;34866;48.670;18.260;2023-04-30T07:46:26;5.05;;;1.90;;
49051;SDS011;34866;48.670;18.260;2023-04-30T07:48:52;4.18;;;1.80;;
49051;SDS011;34866;48.670;18.260;2023-04-30T07:51:17;8.00;;;1.98;;
49051;SDS011;34866;48.670;18.260;2023-04-30T07:53:43;4.75;;;2.10;;
49051;SDS011;34866;48.670;18.260;2023-04-30T07:56:09;4.22;;;1.80;;
49051;SDS011;34866;48.670;18.260;2023-04-30T07:58:35;5.05;;;2.30;;
49051;SDS011;34866;48.670;18.260;2023-04-30T08:01:00;7.75;;;2.47;;
49051;SDS011;34866;48.670;18.260;2023-04-30T08:03:26;3.60;;;1.75;;
49051;SDS011;34866;48.670;18.260;2023-04-30T08:05:51;7.05;;;2.00;;
49051;SDS011;34866;48.670;18.260;2023-04-30T08:08:17;3.90;;;1.85;;
49051;SDS011;34866;48.670;18.260;2023-04-30T08:10:43;4.22;;;2.00;;
49051;SDS011;34866;48.670;18.260;2023-04-30T08:13:08;3.40;;;1.50;;
49051;SDS011;34866;48.670;18.260;2023-04-30T08:15:35;7.13;;;1.75;;
49051;SDS011;34866;48.670;18.260;2023-04-30T08:18:04;3.97;;;1.40;;
49051;SDS011;34866;48.670;18.260;2023-04-30T08:20:31;6.45;;;1.83;;
49051;SDS011;34866;48.670;18.260;2023-04-30T08:22:56;4.78;;;2.03;;
49051;SDS011;34866;48.670;18.260;2023-04-30T08:25:22;8.38;;;2.00;;
49051;SDS011;34866;48.670;18.260;2023-04-30T08:27:48;3.38;;;1.40;;
49051;SDS011;34866;48.670;18.260;2023-04-30T08:30:14;3.90;;;1.70;;
49051;SDS011;34866;48.670;18.260;2023-04-30T08:32:40;5.93;;;2.25;;
49051;SDS011;34866;48.670;18.260;2023-04-30T08:35:06;3.92;;;2.10;;
49051;SDS011;34866;48.670;18.260;2023-04-30T08:37:41;4.88;;;1.95;;
49051;SDS011;34866;48.670;18.260;2023-04-30T08:40:07;3.88;;;1.98;;
49051;SDS011;34866;48.670;18.260;2023-04-30T08:42:35;4.22;;;2.05;;
49051;SDS011;34866;48.670;18.260;2023-04-30T08:45:02;6.00;;;1.98;;
49051;SDS011;34866;48.670;18.260;2023-04-30T08:47:29;5.78;;;2.13;;
49051;SDS011;34866;48.670;18.260;2023-04-30T08:49:55;5.60;;;2.10;;
49051;SDS011;34866;48.670;18.260;2023-04-30T08:52:21;7.00;;;1.90;;
49051;SDS011;34866;48.670;18.260;2023-04-30T08:54:46;5.32;;;2.08;;
49051;SDS011;34866;48.670;18.260;2023-04-30T08:57:12;5.43;;;2.20;;
49051;SDS011;34866;48.670;18.260;2023-04-30T08:59:40;5.18;;;2.03;;
49051;SDS011;34866;48.670;18.260;2023-04-30T09:02:10;4.68;;;2.08;;
49051;SDS011;34866;48.670;18.260;2023-04-30T09:04:35;5.60;;;2.65;;
49051;SDS011;34866;48.670;18.260;2023-04-30T09:07:01;4.82;;;2.50;;
49051;SDS011;34866;48.670;18.260;2023-04-30T09:09:29;9.35;;;2.40;;
49051;SDS011;34866;48.670;18.260;2023-04-30T09:12:17;4.03;;;1.95;;
49051;SDS011;34866;48.670;18.260;2023-04-30T09:15:02;4.15;;;1.88;;
49051;SDS011;34866;48.670;18.260;2023-04-30T09:17:29;4.55;;;2.30;;
49051;SDS011;34866;48.670;18.260;2023-04-30T09:22:38;4.18;;;2.10;;
49051;SDS011;34866;48.670;18.260;2023-04-30T09:25:05;5.65;;;2.40;;
49051;SDS011;34866;48.670;18.260;2023-04-30T09:27:32;6.07;;;2.42;;
49051;SDS011;34866;48.670;18.260;2023-04-30T09:29:57;5.97;;;2.08;;
49051;SDS011;34866;48.670;18.260;2023-04-30T09:32:23;5.57;;;2.38;;
49051;SDS011;34866;48.670;18.260;2023-04-30T09:34:49;9.23;;;2.13;;
49051;SDS011;34866;48.670;18.260;2023-04-30T09:37:15;3.15;;;1.60;;
49051;SDS011;34866;48.670;18.260;2023-04-30T09:39:52;8.38;;;2.45;;
49051;SDS011;34866;48.670;18.260;2023-04-30T09:42:18;5.15;;;2.35;;
49051;SDS011;34866;48.670;18.260;2023-04-30T09:44:45;5.15;;;1.92;;
49051;SDS011;34866;48.670;18.260;2023-04-30T09:47:11;6.05;;;2.00;;
49051;SDS011;34866;48.670;18.260;2023-04-30T09:49:43;4.45;;;2.28;;
49051;SDS011;34866;48.670;18.260;2023-04-30T09:52:13;4.20;;;2.00;;
49051;SDS011;34866;48.670;18.260;2023-04-30T09:54:40;10.00;;;2.88;;
49051;SDS011;34866;48.670;18.260;2023-04-30T09:57:09;6.45;;;2.38;;
49051;SDS011;34866;48.670;18.260;2023-04-30T09:59:36;5.47;;;2.75;;
49051;SDS011;34866;48.670;18.260;2023-04-30T10:02:06;4.20;;;2.08;;
49051;SDS011;34866;48.670;18.260;2023-04-30T10:04:33;4.28;;;2.00;;
49051;SDS011;34866;48.670;18.260;2023-04-30T10:07:18;4.55;;;2.38;;
49051;SDS011;34866;48.670;18.260;2023-04-30T10:09:49;12.30;;;2.25;;
49051;SDS011;34866;48.670;18.260;2023-04-30T10:12:38;12.48;;;2.65;;
49051;SDS011;34866;48.670;18.260;2023-04-30T10:15:24;4.72;;;2.55;;
49051;SDS011;34866;48.670;18.260;2023-04-30T10:18:03;7.43;;;2.72;;
49051;SDS011;34866;48.670;18.260;2023-04-30T10:20:34;6.88;;;2.55;;
49051;SDS011;34866;48.670;18.260;2023-04-30T10:23:03;5.30;;;2.70;;
49051;SDS011;34866;48.670;18.260;2023-04-30T10:25:29;7.63;;;2.35;;
49051;SDS011;34866;48.670;18.260;2023-04-30T10:27:56;12.27;;;3.25;;
49051;SDS011;34866;48.670;18.260;2023-04-30T10:30:22;4.68;;;2.58;;
49051;SDS011;34866;48.670;18.260;2023-04-30T10:32:52;7.25;;;2.67;;
49051;SDS011;34866;48.670;18.260;2023-04-30T10:35:25;4.05;;;2.15;;
49051;SDS011;34866;48.670;18.260;2023-04-30T10:37:54;5.88;;;2.72;;
49051;SDS011;34866;48.670;18.260;2023-04-30T10:40:25;9.77;;;2.30;;
49051;SDS011;34866;48.670;18.260;2023-04-30T10:42:52;5.75;;;2.35;;
49051;SDS011;34866;48.670;18.260;2023-04-30T10:45:37;9.32;;;2.97;;
49051;SDS011;34866;48.670;18.260;2023-04-30T10:48:07;5.70;;;2.35;;
49051;SDS011;34866;48.670;18.260;2023-04-30T10:50:42;8.07;;;2.70;;
49051;SDS011;34866;48.670;18.260;2023-04-30T10:53:18;7.03;;;2.40;;
49051;SDS011;34866;48.670;18.260;2023-04-30T10:55:46;6.30;;;2.50;;
49051;SDS011;34866;48.670;18.260;2023-04-30T10:58:30;11.38;;;3.08;;
49051;SDS011;34866;48.670;18.260;2023-04-30T11:01:09;6.53;;;2.60;;
49051;SDS011;34866;48.670;18.260;2023-04-30T11:03:40;5.15;;;2.53;;
49051;SDS011;34866;48.670;18.260;2023-04-30T11:06:11;5.70;;;3.17;;
49051;SDS011;34866;48.670;18.260;2023-04-30T11:08:43;9.95;;;2.53;;
49051;SDS011;34866;48.670;18.260;2023-04-30T11:11:10;4.72;;;2.58;;
49051;SDS011;34866;48.670;18.260;2023-04-30T11:14:19;3.78;;;2.10;;
49051;SDS011;34866;48.670;18.260;2023-04-30T11:16:41;9.88;;;3.00;;
49051;SDS011;34866;48.670;18.260;2023-04-30T11:19:12;5.82;;;2.53;;
49051;SDS011;34866;48.670;18.260;2023-04-30T11:27:23;5.90;;;2.30;;
49051;SDS011;34866;48.670;18.260;2023-04-30T11:29:56;6.50;;;2.40;;
49051;SDS011;34866;48.670;18.260;2023-04-30T11:32:24;9.10;;;2.85;;
49051;SDS011;34866;48.670;18.260;2023-04-30T11:34:51;5.75;;;2.75;;
49051;SDS011;34866;48.670;18.260;2023-04-30T11:37:19;9.45;;;2.78;;
49051;SDS011;34866;48.670;18.260;2023-04-30T11:39:52;14.23;;;3.10;;
49051;SDS011;34866;48.670;18.260;2023-04-30T11:42:19;5.03;;;2.53;;
49051;SDS011;34866;48.670;18.260;2023-04-30T11:44:45;5.55;;;2.72;;
49051;SDS011;34866;48.670;18.260;2023-04-30T11:47:13;6.03;;;2.75;;
49051;SDS011;34866;48.670;18.260;2023-04-30T11:49:40;7.13;;;3.10;;
49051;SDS011;34866;48.670;18.260;2023-04-30T11:52:07;5.55;;;2.60;;
49051;SDS011;34866;48.670;18.260;2023-04-30T11:54:36;7.22;;;2.60;;
49051;SDS011;34866;48.670;18.260;2023-04-30T11:57:03;7.05;;;3.30;;
49051;SDS011;34866;48.670;18.260;2023-04-30T11:59:30;6.47;;;3.00;;
49051;SDS011;34866;48.670;18.260;2023-04-30T12:02:04;7.32;;;2.88;;
49051;SDS011;34866;48.670;18.260;2023-04-30T12:04:30;7.35;;;3.13;;
49051;SDS011;34866;48.670;18.260;2023-04-30T12:06:56;7.65;;;3.72;;
49051;SDS011;34866;48.670;18.260;2023-04-30T12:09:24;6.10;;;3.15;;
49051;SDS011;34866;48.670;18.260;2023-04-30T12:11:49;5.55;;;3.20;;
49051;SDS011;34866;48.670;18.260;2023-04-30T12:14:15;11.02;;;3.40;;
49051;SDS011;34866;48.670;18.260;2023-04-30T12:16:45;5.53;;;3.55;;
49051;SDS011;34866;48.670;18.260;2023-04-30T12:19:15;7.10;;;2.97;;
49051;SDS011;34866;48.670;18.260;2023-04-30T12:21:45;8.40;;;4.15;;
49051;SDS011;34866;48.670;18.260;2023-04-30T12:24:12;8.90;;;2.75;;
49051;SDS011;34866;48.670;18.260;2023-04-30T12:26:39;11.05;;;2.90;;
49051;SDS011;34866;48.670;18.260;2023-04-30T12:29:15;5.10;;;3.20;;
49051;SDS011;34866;48.670;18.260;2023-04-30T12:31:43;5.82;;;2.70;;
49051;SDS011;34866;48.670;18.260;2023-04-30T12:34:12;5.38;;;2.90;;
49051;SDS011;34866;48.670;18.260;2023-04-30T12:36:41;8.05;;;2.78;;
49051;SDS011;34866;48.670;18.260;2023-04-30T12:39:12;5.43;;;2.63;;
49051;SDS011;34866;48.670;18.260;2023-04-30T12:41:46;11.90;;;3.35;;
49051;SDS011;34866;48.670;18.260;2023-04-30T12:44:19;6.88;;;3.05;;
49051;SDS011;34866;48.670;18.260;2023-04-30T12:46:50;6.07;;;2.72;;
49051;SDS011;34866;48.670;18.260;2023-04-30T12:49:27;6.53;;;2.80;;
49051;SDS011;34866;48.670;18.260;2023-04-30T12:52:02;6.88;;;3.55;;
49051;SDS011;34866;48.670;18.260;2023-04-30T12:54:36;5.10;;;2.83;;
49051;SDS011;34866;48.670;18.260;2023-04-30T12:59:36;5.82;;;3.08;;
49051;SDS011;34866;48.670;18.260;2023-04-30T13:04:42;8.48;;;3.63;;
49051;SDS011;34866;48.670;18.260;2023-04-30T13:07:08;5.47;;;2.80;;
49051;SDS011;34866;48.670;18.260;2023-04-30T13:09:35;5.88;;;3.13;;
49051;SDS011;34866;48.670;18.260;2023-04-30T13:12:02;6.22;;;3.08;;
49051;SDS011;34866;48.670;18.260;2023-04-30T13:14:28;6.35;;;3.20;;
49051;SDS011;34866;48.670;18.260;2023-04-30T13:17:03;6.38;;;3.17;;
49051;SDS011;34866;48.670;18.260;2023-04-30T13:19:29;5.97;;;3.60;;
49051;SDS011;34866;48.670;18.260;2023-04-30T13:21:58;5.80;;;3.25;;
49051;SDS011;34866;48.670;18.260;2023-04-30T13:24:25;7.80;;;3.40;;
49051;SDS011;34866;48.670;18.260;2023-04-30T13:26:51;10.95;;;4.32;;
49051;SDS011;34866;48.670;18.260;2023-04-30T13:29:16;6.53;;;3.20;;
49051;SDS011;34866;48.670;18.260;2023-04-30T13:31:44;7.32;;;3.50;;
49051;SDS011;34866;48.670;18.260;2023-04-30T13:34:10;5.95;;;2.80;;
49051;SDS011;34866;48.670;18.260;2023-04-30T13:36:36;6.70;;;3.03;;
49051;SDS011;34866;48.670;18.260;2023-04-30T13:39:02;6.32;;;3.60;;
49051;SDS011;34866;48.670;18.260;2023-04-30T13:41:28;4.85;;;2.95;;
49051;SDS011;34866;48.670;18.260;2023-04-30T13:43:54;13.38;;;4.25;;
49051;SDS011;34866;48.670;18.260;2023-04-30T13:46:20;5.18;;;2.85;;
49051;SDS011;34866;48.670;18.260;2023-04-30T13:48:47;5.80;;;2.88;;
49051;SDS011;34866;48.670;18.260;2023-04-30T13:51:17;6.75;;;4.10;;
49051;SDS011;34866;48.670;18.260;2023-04-30T13:53:43;6.38;;;3.30;;
49051;SDS011;34866;48.670;18.260;2023-04-30T13:56:09;7.05;;;3.20;;
49051;SDS011;34866;48.670;18.260;2023-04-30T13:58:35;12.07;;;3.45;;
49051;SDS011;34866;48.670;18.260;2023-04-30T14:01:00;7.05;;;2.90;;
49051;SDS011;34866;48.670;18.260;2023-04-30T14:03:26;10.82;;;3.28;;
49051;SDS011;34866;48.670;18.260;2023-04-30T14:05:55;7.22;;;3.28;;
49051;SDS011;34866;48.670;18.260;2023-04-30T14:08:23;5.72;;;2.95;;
49051;SDS011;34866;48.670;18.260;2023-04-30T14:10:49;12.25;;;3.28;;
49051;SDS011;34866;48.670;18.260;2023-04-30T14:13:14;7.35;;;3.33;;
49051;SDS011;34866;48.670;18.260;2023-04-30T14:15:41;12.15;;;3.50;;
49051;SDS011;34866;48.670;18.260;2023-04-30T14:18:24;9.05;;;3.90;;
49051;SDS011;34866;48.670;18.260;2023-04-30T14:20:49;4.45;;;2.80;;
49051;SDS011;34866;48.670;18.260;2023-04-30T14:23:15;8.20;;;3.13;;
49051;SDS011;34866;48.670;18.260;2023-04-30T14:25:54;4.82;;;2.88;;
49051;SDS011;34866;48.670;18.260;2023-04-30T14:28:20;6.20;;;2.75;;
49051;SDS011;34866;48.670;18.260;2023-04-30T14:30:47;6.35;;;2.85;;
49051;SDS011;34866;48.670;18.260;2023-04-30T14:33:13;5.60;;;3.22;;
49051;SDS011;34866;48.670;18.260;2023-04-30T14:35:39;5.20;;;3.15;;
49051;SDS011;34866;48.670;18.260;2023-04-30T14:38:05;5.63;;;2.67;;
49051;SDS011;34866;48.670;18.260;2023-04-30T14:40:31;7.45;;;2.85;;
49051;SDS011;34866;48.670;18.260;2023-04-30T14:42:58;5.90;;;2.92;;
49051;SDS011;34866;48.670;18.260;2023-04-30T14:45:23;10.90;;;3.28;;
49051;SDS011;34866;48.670;18.260;2023-04-30T14:47:52;6.32;;;3.35;;
49051;SDS011;34866;48.670;18.260;2023-04-30T14:50:38;8.60;;;2.90;;
49051;SDS011;34866;48.670;18.260;2023-04-30T14:53:05;8.80;;;2.78;;
49051;SDS011;34866;48.670;18.260;2023-04-30T14:55:31;5.20;;;2.90;;
49051;SDS011;34866;48.670;18.260;2023-04-30T14:57:58;9.75;;;3.35;;
49051;SDS011;34866;48.670;18.260;2023-04-30T15:00:23;5.20;;;2.75;;
49051;SDS011;34866;48.670;18.260;2023-04-30T15:02:49;6.63;;;4.00;;
49051;SDS011;34866;48.670;18.260;2023-04-30T15:05:15;7.50;;;3.28;;
49051;SDS011;34866;48.670;18.260;2023-04-30T15:07:41;6.13;;;3.28;;
49051;SDS011;34866;48.670;18.260;2023-04-30T15:10:10;6.60;;;3.10;;